Oljato, Arizona
Current Conditions -  °F | °C
As of 1:15 PM on Wednesday 26 Nov 2014 (Local Time) from KBDG Reporting Station
Clear Clear  
Wind Chill: 53°   Ceiling: Unl
Heat Index: 53°   Visibility: 10mi
Dew Point: 19°   Wind: 10mph
Humidity: 26%   Direction: 180°S
Pressure: 30.42"   Gusts: 20mph
Location:  36.6859°N, 110.268°W
Report Text: KBDG 262015Z AUTO 18009G17KT 10SM CLR 12/M07 A3042 RMK AO1 T01181072
Loading
Personal Weather Stations






























Interactive Weather Map New forecast layout! Learn more

10-Day Weather Forecast

Advertisements
Track Severe Weather on mobile